createdAt,value
2024-03-16T00:00:44.271Z,23.92
2024-03-16T00:03:11.415Z,25.77
2024-03-16T00:05:38.741Z,22.90
2024-03-16T00:08:06.306Z,21.88
2024-03-16T00:10:33.057Z,22.70
2024-03-16T00:12:59.739Z,23.33
2024-03-16T00:15:26.621Z,20.13
2024-03-16T00:17:54.054Z,21.35
2024-03-16T00:20:20.747Z,21.92
2024-03-16T00:22:47.444Z,26.13
2024-03-16T00:25:15.712Z,21.63
2024-03-16T00:27:42.571Z,16.20
2024-03-16T00:30:11.247Z,21.17
2024-03-16T00:32:39.487Z,25.35
2024-03-16T00:35:06.271Z,21.88
2024-03-16T00:37:33.311Z,21.25
2024-03-16T00:39:59.916Z,23.40
2024-03-16T00:42:26.927Z,20.75
2024-03-16T00:44:53.853Z,18.73
2024-03-16T00:47:20.490Z,22.67
2024-03-16T00:49:47.023Z,23.48
2024-03-16T00:52:13.670Z,20.83
2024-03-16T00:54:40.352Z,19.23
2024-03-16T00:57:06.928Z,22.10
2024-03-16T00:59:33.485Z,23.60
2024-03-16T01:02:00.263Z,21.35
2024-03-16T01:04:28.404Z,17.20
2024-03-16T01:06:55.191Z,18.77
2024-03-16T01:09:21.910Z,18.15
2024-03-16T01:11:48.692Z,25.92
2024-03-16T01:14:15.392Z,24.23
2024-03-16T01:16:42.431Z,20.40
2024-03-16T01:19:09.018Z,19.13
2024-03-16T01:21:36.065Z,20.13
2024-03-16T01:24:03.866Z,19.05
2024-03-16T01:26:30.418Z,27.13
2024-03-16T01:28:57.043Z,17.08
2024-03-16T01:31:23.675Z,22.05
2024-03-16T01:33:52.186Z,19.70
2024-03-16T01:36:19.043Z,26.80
2024-03-16T01:38:46.785Z,24.92
2024-03-16T01:41:13.956Z,21.42
2024-03-16T01:43:40.524Z,22.27
2024-03-16T01:46:09.593Z,24.17
2024-03-16T01:48:36.300Z,27.10
2024-03-16T01:51:04.863Z,22.80
2024-03-16T01:53:33.728Z,27.90
2024-03-16T01:56:00.294Z,28.90
2024-03-16T01:58:26.872Z,22.00
2024-03-16T02:00:54.501Z,20.50
2024-03-16T02:03:21.225Z,25.60
2024-03-16T02:05:47.871Z,27.02
2024-03-16T02:08:14.473Z,24.42
2024-03-16T02:10:41.070Z,22.65
2024-03-16T02:13:07.944Z,26.85
2024-03-16T02:15:34.689Z,23.13
2024-03-16T02:18:01.341Z,23.42
2024-03-16T02:20:27.964Z,24.70
2024-03-16T02:22:54.592Z,20.52
2024-03-16T02:25:21.302Z,27.13
2024-03-16T02:27:48.472Z,29.75
2024-03-16T02:30:16.280Z,21.75
2024-03-16T02:32:42.932Z,25.10
2024-03-16T02:35:10.299Z,28.17
2024-03-16T02:37:37.449Z,26.50
2024-03-16T02:40:05.214Z,26.02
2024-03-16T02:42:32.076Z,27.90
2024-03-16T02:44:58.698Z,29.95
2024-03-16T02:47:25.465Z,25.15
2024-03-16T02:49:52.222Z,26.08
2024-03-16T02:52:18.936Z,29.55
2024-03-16T02:54:45.526Z,27.38
2024-03-16T02:57:12.089Z,26.23
2024-03-16T02:59:38.681Z,26.98
2024-03-16T03:02:06.740Z,26.45
2024-03-16T03:04:33.378Z,28.48
2024-03-16T03:07:00.001Z,27.20
2024-03-16T03:09:27.332Z,26.30
2024-03-16T03:11:54.022Z,30.98
2024-03-16T03:14:20.620Z,27.60
2024-03-16T03:16:47.165Z,25.85
2024-03-16T03:19:13.984Z,31.42
2024-03-16T03:21:40.754Z,22.35
2024-03-16T03:24:07.377Z,27.02
2024-03-16T03:26:34.238Z,28.95
2024-03-16T03:29:01.129Z,27.38
2024-03-16T03:31:27.741Z,22.15
2024-03-16T03:33:54.396Z,21.23
2024-03-16T03:36:20.990Z,24.92
2024-03-16T03:38:47.892Z,19.77
2024-03-16T03:41:14.518Z,24.42
2024-03-16T03:43:41.442Z,28.27
2024-03-16T03:46:14.444Z,24.70
2024-03-16T03:48:50.956Z,23.48
2024-03-16T03:51:17.613Z,22.67
2024-03-16T03:53:44.595Z,24.90
2024-03-16T03:56:11.888Z,26.00
2024-03-16T03:58:38.553Z,25.45
2024-03-16T04:01:05.215Z,24.40
2024-03-16T04:03:31.897Z,27.83
2024-03-16T04:05:59.696Z,27.05
2024-03-16T04:08:26.346Z,29.25
2024-03-16T04:10:52.938Z,24.42
2024-03-16T04:13:19.524Z,32.22
2024-03-16T04:15:46.248Z,27.30
2024-03-16T04:18:12.938Z,27.25
2024-03-16T04:20:39.783Z,26.40
2024-03-16T04:23:08.128Z,25.50
2024-03-16T04:25:35.044Z,30.17
2024-03-16T04:28:01.668Z,30.27
2024-03-16T04:30:28.341Z,23.33
2024-03-16T04:32:54.985Z,22.17
2024-03-16T04:35:21.611Z,23.55
2024-03-16T04:37:48.182Z,23.35
2024-03-16T04:40:14.855Z,27.58
2024-03-16T04:42:42.710Z,22.52
2024-03-16T04:45:09.358Z,22.98
2024-03-16T04:47:35.990Z,22.50
2024-03-16T04:50:02.671Z,24.55
2024-03-16T04:52:29.320Z,26.83
2024-03-16T04:54:55.886Z,24.45
2024-03-16T04:57:22.577Z,26.58
2024-03-16T04:59:49.178Z,22.08
2024-03-16T05:02:15.769Z,28.48
2024-03-16T05:04:42.331Z,22.33
2024-03-16T05:07:09.032Z,29.67
2024-03-16T05:09:37.606Z,27.67
2024-03-16T05:12:04.613Z,27.05
2024-03-16T05:14:32.844Z,25.83
2024-03-16T05:16:59.401Z,26.08
2024-03-16T05:19:26.901Z,28.10
2024-03-16T05:21:53.528Z,27.00
2024-03-16T05:24:20.153Z,30.90
2024-03-16T05:26:46.817Z,34.28
2024-03-16T05:29:13.351Z,17.92
2024-03-16T05:31:39.849Z,12.55
2024-03-16T05:34:06.649Z,12.32
2024-03-16T05:36:33.314Z,7.68
2024-03-16T05:39:00.775Z,7.20
2024-03-16T05:41:27.320Z,11.70
2024-03-16T05:43:54.330Z,10.23
2024-03-16T05:46:21.192Z,8.35
2024-03-16T05:48:47.788Z,10.15
2024-03-16T05:51:14.342Z,7.18
2024-03-16T05:53:41.556Z,10.43
2024-03-16T05:56:08.185Z,9.98
2024-03-16T05:58:34.760Z,9.13
2024-03-16T06:01:02.439Z,9.93
2024-03-16T06:03:30.006Z,8.00
2024-03-16T06:05:56.701Z,10.38
2024-03-16T06:08:23.306Z,9.07
2024-03-16T06:10:49.884Z,9.00
2024-03-16T06:13:16.736Z,8.00
2024-03-16T06:15:43.427Z,8.65
2024-03-16T06:18:10.345Z,11.60
2024-03-16T06:20:37.025Z,11.88
2024-03-16T06:23:03.743Z,13.57
2024-03-16T06:25:36.806Z,14.57
2024-03-16T06:28:12.225Z,14.43
2024-03-16T06:30:38.942Z,13.40
2024-03-16T06:33:11.805Z,16.00
2024-03-16T06:35:38.855Z,18.23
2024-03-16T06:38:05.563Z,12.82
2024-03-16T06:40:32.159Z,15.88
2024-03-16T06:42:58.778Z,13.90
2024-03-16T06:45:25.471Z,19.10
2024-03-16T06:47:52.323Z,14.00
2024-03-16T06:50:19.001Z,14.88
2024-03-16T06:52:46.470Z,17.13
2024-03-16T06:55:14.444Z,17.63
2024-03-16T06:57:41.179Z,13.40
2024-03-16T07:00:10.330Z,12.60
2024-03-16T07:02:36.911Z,16.05
2024-03-16T07:05:03.984Z,16.30
2024-03-16T07:07:31.366Z,18.95
2024-03-16T07:09:59.011Z,10.95
2024-03-16T07:12:25.660Z,14.45
2024-03-16T07:14:52.206Z,13.55
2024-03-16T07:17:18.761Z,9.43
2024-03-16T07:19:45.416Z,8.77
2024-03-16T07:22:13.791Z,9.27
2024-03-16T07:24:40.340Z,12.13
2024-03-16T07:27:08.326Z,10.70
2024-03-16T07:29:34.958Z,13.02
2024-03-16T07:32:01.544Z,12.65
2024-03-16T07:34:28.126Z,9.07
2024-03-16T07:36:54.804Z,6.55
2024-03-16T07:39:22.261Z,11.82
2024-03-16T07:41:50.609Z,7.32
2024-03-16T07:44:18.413Z,10.95
2024-03-16T07:46:47.931Z,11.30
2024-03-16T07:49:14.535Z,8.85
2024-03-16T07:51:44.211Z,12.23
2024-03-16T07:54:13.485Z,11.93
2024-03-16T07:56:41.007Z,12.65
2024-03-16T07:59:10.484Z,14.98
2024-03-16T08:01:37.827Z,12.15
2024-03-16T08:04:05.110Z,11.38
2024-03-16T08:06:31.835Z,16.33
2024-03-16T08:08:58.468Z,14.25
2024-03-16T08:11:25.137Z,12.95
2024-03-16T08:13:51.736Z,14.52
2024-03-16T08:16:18.406Z,12.38
2024-03-16T08:18:47.028Z,13.20
2024-03-16T08:21:15.816Z,13.65
2024-03-16T08:23:43.160Z,10.05
2024-03-16T08:26:10.473Z,11.43
2024-03-16T08:28:37.588Z,9.48
2024-03-16T08:31:06.221Z,7.32
2024-03-16T08:33:33.166Z,8.40
2024-03-16T08:35:59.899Z,7.38
2024-03-16T08:38:26.854Z,6.63
2024-03-16T08:40:53.779Z,5.78
2024-03-16T08:43:20.468Z,4.10
2024-03-16T08:45:47.811Z,9.85
2024-03-16T08:48:14.447Z,8.93
2024-03-16T08:50:41.075Z,5.80
2024-03-16T08:53:07.796Z,5.75
2024-03-16T08:55:34.533Z,6.63
2024-03-16T08:58:01.306Z,5.38
2024-03-16T09:00:28.090Z,5.22
2024-03-16T09:02:54.634Z,3.38
2024-03-16T09:05:22.298Z,3.25
2024-03-16T09:07:48.904Z,4.90
2024-03-16T09:10:16.217Z,5.63
2024-03-16T09:12:42.905Z,4.60
2024-03-16T09:15:10.056Z,3.85
2024-03-16T09:17:37.620Z,4.07
2024-03-16T09:20:12.140Z,4.28
2024-03-16T09:22:39.202Z,2.67
2024-03-16T09:25:09.892Z,5.05
2024-03-16T09:27:37.126Z,3.75
2024-03-16T09:30:09.713Z,3.90
2024-03-16T09:32:37.904Z,6.05
2024-03-16T09:35:11.444Z,5.43
2024-03-16T09:37:38.155Z,4.45
2024-03-16T09:40:12.410Z,5.63
2024-03-16T09:42:40.076Z,4.53
